Time;durP1;ratioP1;P1;durP2;ratioP2;P2;SDS_P1;SDS_P2;PMS_P1;PMS_P2;Temp;Humidity;BMP_temperature;BMP_pressure;BME280_temperature;BME280_humidity;BME280_pressure;Samples;Min_cycle;Max_cycle;Signal;HPM_P1;HPM_P2
2023/06/21 00:01:41;;;;;;;;;5.00;5.00;;;;;23.33;59.95;100893.75;5039308;28;45470;-71
2023/06/21 00:04:06;;;;;;;;;8.00;6.00;;;;;23.30;59.36;100898.81;5057687;28;45521;-71
2023/06/21 00:06:34;;;;;;;;;7.00;7.00;;;;;23.24;59.55;100886.97;5057003;28;46442;-72
2023/06/21 00:09:00;;;;;;;;;3.00;2.50;;;;;23.28;59.32;100890.91;5057149;28;45273;-71
2023/06/21 00:11:25;;;;;;;;;3.67;3.33;;;;;23.29;59.10;100891.72;5057343;28;45506;-72
2023/06/21 00:13:54;;;;;;;;;6.33;5.00;;;;;23.30;58.97;100886.06;5057492;28;45174;-72
2023/06/21 00:16:20;;;;;;;;;5.00;5.00;;;;;23.25;59.34;100880.50;5055674;28;47694;-73
2023/06/21 00:18:45;;;;;;;;;5.67;5.67;;;;;23.16;59.80;100876.41;5057067;28;45299;-72
2023/06/21 00:21:11;;;;;;;;;6.00;6.00;;;;;22.90;58.97;100844.94;5057268;28;45340;-73
2023/06/21 00:23:36;;;;;;;;;6.33;5.33;;;;;23.22;59.70;100891.75;5057063;28;45463;-70
2023/06/21 00:26:01;;;;;;;;;5.00;5.00;;;;;23.19;59.44;100892.22;5056746;28;50965;-70
2023/06/21 00:28:27;;;;;;;;;4.33;4.33;;;;;23.24;59.58;100888.84;5056783;28;48152;-72
2023/06/21 00:30:52;;;;;;;;;4.67;4.67;;;;;23.22;59.49;100890.94;5057218;28;45594;-71
2023/06/21 00:33:17;;;;;;;;;6.33;4.33;;;;;23.15;59.58;100885.59;5057377;28;45364;-72
2023/06/21 00:35:43;;;;;;;;;6.33;6.33;;;;;23.13;59.63;100889.56;5038446;28;46215;-72
2023/06/21 00:38:12;;;;;;;;;4.00;4.00;;;;;23.14;59.98;100900.19;5056741;28;45499;-71
2023/06/21 00:40:38;;;;;;;;;2.67;2.67;;;;;23.14;59.76;100902.09;5038812;28;45293;-71
2023/06/21 00:43:03;;;;;;;;;5.00;5.00;;;;;23.09;59.97;100891.91;5056898;28;45442;-72
2023/06/21 00:45:29;;;;;;;;;5.33;4.33;;;;;23.05;59.82;100882.56;5056625;28;45583;-71
2023/06/21 00:47:57;;;;;;;;;4.00;4.00;;;;;23.10;59.99;100893.56;5056643;28;45300;-71
2023/06/21 00:50:22;;;;;;;;;4.00;4.00;;;;;23.04;59.72;100889.03;5056928;28;45313;-71
2023/06/21 00:52:47;;;;;;;;;4.33;4.00;;;;;23.02;60.18;100889.22;5056692;28;45401;-72
2023/06/21 00:55:13;;;;;;;;;6.00;6.00;;;;;22.99;60.08;100884.25;5056915;28;45474;-72
2023/06/21 00:57:40;;;;;;;;;4.67;4.67;;;;;23.04;60.35;100894.47;5056635;28;45447;-72
2023/06/21 01:00:06;;;;;;;;;4.00;3.00;;;;;22.40;60.12;100798.00;5056686;28;45185;-71
2023/06/21 01:02:31;;;;;;;;;6.67;3.33;;;;;22.95;60.08;100899.31;5056851;28;45202;-72
2023/06/21 01:04:57;;;;;;;;;5.67;4.00;;;;;22.70;60.34;100855.09;5056477;28;46738;-72
2023/06/21 01:07:32;;;;;;;;;5.00;5.00;;;;;23.03;60.06;100918.03;5056220;28;45349;-72
2023/06/21 01:10:26;;;;;;;;;4.33;4.33;;;;;23.01;60.41;100920.13;5056685;28;45465;-73
2023/06/21 01:13:09;;;;;;;;;6.00;4.67;;;;;22.99;60.15;100930.38;5060264;28;45419;-72
2023/06/21 01:15:47;;;;;;;;;4.00;4.00;;;;;22.36;60.18;100826.56;5059733;28;46549;-72
2023/06/21 01:18:15;;;;;;;;;6.00;5.00;;;;;22.94;60.45;100929.38;5059907;28;45305;-72
2023/06/21 01:20:48;;;;;;;;;5.33;4.33;;;;;22.95;60.66;100947.28;5059834;28;45577;-72
2023/06/21 01:23:26;;;;;;;;;3.33;3.33;;;;;22.93;60.36;100941.25;5059920;28;45568;-73
2023/06/21 01:26:07;;;;;;;;;5.00;5.00;;;;;22.74;60.82;100922.19;5059529;28;45323;-72
2023/06/21 01:28:54;;;;;;;;;4.25;4.25;;;;;22.88;60.89;100951.94;5059565;28;45356;-73
2023/06/21 01:31:22;;;;;;;;;5.00;5.00;;;;;22.55;60.67;100889.81;5059678;28;45501;-71
2023/06/21 01:33:49;;;;;;;;;3.67;3.33;;;;;22.84;60.87;100937.19;5041851;28;45471;-72
2023/06/21 01:36:15;;;;;;;;;5.33;4.00;;;;;22.83;61.18;100947.19;5041037;28;47340;-73
2023/06/21 01:38:40;;;;;;;;;4.00;4.00;;;;;22.75;60.60;100939.28;5041434;28;45542;-72
2023/06/21 01:41:10;;;;;;;;;4.00;4.00;;;;;22.81;60.52;100954.66;5059771;28;45297;-72
2023/06/21 01:43:36;;;;;;;;;3.00;3.00;;;;;22.72;60.87;100947.84;5059688;28;45329;-71
2023/06/21 01:46:04;;;;;;;;;4.00;4.00;;;;;22.54;61.17;100928.78;5058003;28;46875;-72
2023/06/21 01:48:33;;;;;;;;;5.00;4.00;;;;;22.68;61.18;100961.00;5059314;28;45238;-71
2023/06/21 01:51:02;;;;;;;;;4.00;4.00;;;;;22.72;60.95;100961.41;5059630;28;45269;-70
2023/06/21 01:53:29;;;;;;;;;5.00;4.00;;;;;22.73;61.26;100953.06;5059298;28;45570;-71
2023/06/21 01:55:56;;;;;;;;;3.33;3.33;;;;;22.68;61.53;100952.06;5059040;28;45576;-71
2023/06/21 01:58:22;;;;;;;;;2.00;1.00;;;;;22.60;61.43;100949.59;5059170;28;45261;-70
2023/06/21 02:00:48;;;;;;;;;4.67;4.00;;;;;22.60;61.34;100955.84;5059412;28;45349;-71
2023/06/21 02:03:15;;;;;;;;;4.00;4.00;;;;;22.27;61.04;100911.88;5059603;28;45462;-71
2023/06/21 02:05:42;;;;;;;;;5.00;5.00;;;;;22.65;61.03;100971.47;5059299;28;46196;-72
2023/06/21 02:08:15;;;;;;;;;6.33;4.00;;;;;22.61;61.34;100976.47;5058711;28;45445;-72
2023/06/21 02:10:42;;;;;;;;;3.00;3.00;;;;;22.58;61.64;100981.50;5059168;28;45451;-71
2023/06/21 02:13:07;;;;;;;;;4.00;4.00;;;;;22.17;61.63;100915.84;5059333;28;45379;-70
2023/06/21 02:15:33;;;;;;;;;6.00;4.67;;;;;22.57;62.03;100985.25;5058847;28;45399;-71
2023/06/21 02:17:58;;;;;;;;;5.00;4.00;;;;;22.59;61.39;100978.56;5058940;28;45356;-70
2023/06/21 02:20:23;;;;;;;;;5.67;4.00;;;;;22.53;61.93;100968.59;5059245;28;45457;-70
2023/06/21 02:22:49;;;;;;;;;6.00;4.00;;;;;22.57;61.79;100969.81;5058339;28;45194;-70
2023/06/21 02:25:16;;;;;;;;;3.67;3.00;;;;;22.58;61.95;100963.34;5058785;28;46012;-71
2023/06/21 02:27:41;;;;;;;;;3.00;3.00;;;;;22.56;61.94;100965.47;5058739;28;45421;-73
2023/06/21 02:30:10;;;;;;;;;3.33;3.00;;;;;22.44;61.69;100953.66;5058921;28;45230;-72
2023/06/21 02:32:36;;;;;;;;;4.00;4.00;;;;;22.51;62.21;100964.44;5041004;28;45842;-72
2023/06/21 02:35:01;;;;;;;;;3.33;2.33;;;;;22.44;61.87;100961.78;5058549;28;45608;-72
2023/06/21 02:37:28;;;;;;;;;2.33;2.33;;;;;22.51;62.00;100972.59;5058394;28;45613;-72
2023/06/21 02:39:57;;;;;;;;;3.00;3.00;;;;;22.45;62.10;100955.31;5058651;28;45382;-72
2023/06/21 02:42:23;;;;;;;;;4.00;3.33;;;;;22.43;62.26;100960.13;5058872;28;45381;-71
2023/06/21 02:44:48;;;;;;;;;1.00;1.00;;;;;22.06;62.02;100900.31;5058407;28;45790;-71
2023/06/21 02:47:16;;;;;;;;;4.00;3.00;;;;;22.48;62.15;100971.13;5057886;28;56071;-71
2023/06/21 02:49:41;;;;;;;;;4.67;4.33;;;;;22.44;62.29;100964.50;5058665;28;45357;-72
2023/06/21 02:52:08;;;;;;;;;4.67;4.67;;;;;22.46;61.90;100981.38;5058645;28;45351;-71
2023/06/21 02:54:33;;;;;;;;;6.00;4.00;;;;;22.32;62.53;100966.22;5058162;28;46930;-71
2023/06/21 02:56:58;;;;;;;;;3.00;3.00;;;;;22.38;62.31;100965.34;5058197;28;45290;-72
2023/06/21 02:59:28;;;;;;;;;2.00;2.00;;;;;22.44;62.64;100980.75;5057863;28;56390;-73
2023/06/21 03:01:54;;;;;;;;;5.67;5.67;;;;;22.45;62.74;100977.81;5058682;28;45316;-72
2023/06/21 03:04:19;;;;;;;;;5.33;5.33;;;;;22.45;62.38;100975.13;5057788;28;45493;-72
2023/06/21 03:06:45;;;;;;;;;5.67;3.00;;;;;22.45;62.76;100987.84;5057669;28;51701;-71
2023/06/21 03:09:10;;;;;;;;;5.00;5.00;;;;;22.33;62.94;100974.13;5039986;28;45368;-71
2023/06/21 03:11:35;;;;;;;;;4.00;3.33;;;;;22.43;62.79;100988.06;5058392;28;45297;-70
2023/06/21 03:14:01;;;;;;;;;7.33;7.00;;;;;22.43;62.67;100995.34;5058023;28;47342;-71
2023/06/21 03:16:26;;;;;;;;;6.67;4.00;;;;;22.44;63.00;100994.31;5058152;28;45308;-72
2023/06/21 03:18:52;;;;;;;;;7.00;6.00;;;;;22.42;62.97;100996.38;5058235;28;45838;-72
2023/06/21 03:21:17;;;;;;;;;3.00;3.00;;;;;22.39;62.66;100994.91;5057808;28;45376;-73
2023/06/21 03:23:43;;;;;;;;;4.67;3.33;;;;;22.09;62.71;100951.31;5057884;28;45740;-71
2023/06/21 03:26:09;;;;;;;;;3.00;2.67;;;;;22.26;63.03;100983.34;5057964;28;45343;-71
2023/06/21 03:28:34;;;;;;;;;5.33;3.33;;;;;22.33;62.86;100997.66;5057838;28;45304;-71
2023/06/21 03:30:59;;;;;;;;;3.00;3.00;;;;;22.33;62.99;100994.97;5058218;28;45396;-71
2023/06/21 03:33:24;;;;;;;;;6.00;3.67;;;;;22.29;63.28;100988.31;5056887;28;62933;-71
2023/06/21 03:35:50;;;;;;;;;4.33;4.33;;;;;22.07;62.83;100956.13;5056327;28;64453;-72
2023/06/21 03:38:17;;;;;;;;;3.67;3.67;;;;;22.00;63.50;100951.72;5057414;28;45239;-71
2023/06/21 03:40:43;;;;;;;;;4.67;3.00;;;;;22.31;63.21;101005.19;5058012;28;45275;-72
2023/06/21 03:43:08;;;;;;;;;8.00;5.67;;;;;22.21;63.53;100994.78;5057455;28;46508;-70
2023/06/21 03:45:34;;;;;;;;;4.00;4.00;;;;;22.24;63.05;101007.09;5056191;28;46269;-72
2023/06/21 03:48:03;;;;;;;;;7.67;5.67;;;;;22.28;63.60;101020.00;5057496;28;45518;-70
2023/06/21 03:50:28;;;;;;;;;5.00;5.00;;;;;21.96;63.58;100975.69;5057750;28;45424;-71
2023/06/21 03:52:54;;;;;;;;;3.67;3.67;;;;;22.30;63.29;101033.31;5057026;28;46623;-71
2023/06/21 03:55:19;;;;;;;;;6.00;4.00;;;;;22.23;63.14;101041.47;5057083;28;45404;-72
2023/06/21 03:57:44;;;;;;;;;5.00;5.00;;;;;22.19;63.47;101032.09;5057449;28;45498;-71
2023/06/21 04:00:11;;;;;;;;;5.67;4.67;;;;;22.24;63.46;101037.72;5057750;28;45475;-72
2023/06/21 04:02:36;;;;;;;;;3.33;3.33;;;;;22.23;63.57;101044.19;5057359;28;45789;-72
2023/06/21 04:05:02;;;;;;;;;5.00;4.00;;;;;22.32;63.60;101050.19;5057195;28;45290;-72
2023/06/21 04:07:27;;;;;;;;;7.33;6.00;;;;;22.34;63.34;101050.81;5056602;28;45175;-72
2023/06/21 04:09:52;;;;;;;;;5.33;4.00;;;;;22.30;63.36;101055.00;5056777;28;50310;-72
2023/06/21 04:12:18;;;;;;;;;4.67;4.67;;;;;22.27;63.68;101044.59;5055542;28;47655;-72
2023/06/21 04:14:43;;;;;;;;;5.67;5.67;;;;;22.35;63.62;101064.13;5057159;28;45402;-71
2023/06/21 04:17:09;;;;;;;;;4.33;4.33;;;;;22.29;63.27;101053.31;5057026;28;45533;-72
2023/06/21 04:19:34;;;;;;;;;3.00;3.00;;;;;22.16;63.53;101036.06;5057093;28;45360;-71
2023/06/21 04:21:59;;;;;;;;;5.00;5.00;;;;;22.42;63.74;101083.91;5056614;28;45805;-71
2023/06/21 04:24:25;;;;;;;;;4.00;3.00;;;;;22.38;63.29;101073.69;5056997;28;45307;-72
2023/06/21 04:26:50;;;;;;;;;7.00;6.33;;;;;22.38;63.68;101076.41;5057196;28;45962;-70
2023/06/21 04:29:19;;;;;;;;;7.00;4.67;;;;;22.38;63.44;101084.53;5057033;28;45316;-72
2023/06/21 04:31:45;;;;;;;;;5.00;5.00;;;;;22.38;63.79;101096.22;5056577;28;45916;-72
2023/06/21 04:34:10;;;;;;;;;8.67;8.00;;;;;22.11;63.44;101052.13;5055131;28;45486;-72
2023/06/21 04:36:37;;;;;;;;;6.67;5.33;;;;;22.40;63.63;101098.69;5056135;28;45826;-73
2023/06/21 04:39:02;;;;;;;;;7.67;5.67;;;;;22.39;63.48;101107.88;5057115;28;45171;-72
2023/06/21 04:41:28;;;;;;;;;5.00;5.00;;;;;22.24;63.76;101080.22;5056508;28;45654;-69
2023/06/21 04:43:53;;;;;;;;;5.33;4.33;;;;;22.38;63.67;101117.06;5037847;28;52146;-71
2023/06/21 04:46:21;;;;;;;;;5.33;5.33;;;;;22.46;63.88;101130.38;5058378;28;45352;-72
2023/06/21 04:48:50;;;;;;;;;5.00;5.00;;;;;22.37;63.44;101118.94;5060433;28;45494;-71
2023/06/21 04:51:16;;;;;;;;;9.00;7.67;;;;;22.53;63.92;101144.72;5059780;28;46407;-82
2023/06/21 04:53:43;;;;;;;;;4.00;4.00;;;;;22.59;63.59;101132.19;5059663;28;45264;-71
2023/06/21 04:56:12;;;;;;;;;6.00;6.00;;;;;22.59;63.32;101135.75;5060038;28;45553;-71
2023/06/21 04:58:39;;;;;;;;;6.67;6.33;;;;;22.69;63.31;101132.59;5060297;28;45257;-71
2023/06/21 05:01:04;;;;;;;;;6.33;6.00;;;;;22.69;63.30;101133.44;5058302;28;47588;-71
2023/06/21 05:03:32;;;;;;;;;8.00;8.00;;;;;22.78;63.33;101148.41;5059772;28;45242;-71
2023/06/21 05:06:01;;;;;;;;;10.33;9.00;;;;;22.74;63.35;101136.31;5059739;28;45233;-71
2023/06/21 05:08:26;;;;;;;;;7.33;7.33;;;;;22.77;63.46;101154.03;5059727;28;45294;-71
2023/06/21 05:10:52;;;;;;;;;7.33;7.33;;;;;22.40;63.12;101087.88;5059758;28;46064;-72
2023/06/21 05:13:17;;;;;;;;;9.00;8.00;;;;;22.83;62.83;101158.66;5059904;28;45505;-70
2023/06/21 05:15:43;;;;;;;;;5.67;5.00;;;;;22.77;63.50;101149.44;5059799;28;45310;-71
2023/06/21 05:18:08;;;;;;;;;8.33;8.33;;;;;22.82;63.44;101154.25;5041397;28;45553;-72
2023/06/21 05:20:33;;;;;;;;;7.50;6.50;;;;;22.95;62.96;101172.34;5058891;28;63335;-72
2023/06/21 05:22:59;;;;;;;;;6.00;6.00;;;;;22.58;63.18;101106.16;5059499;28;45498;-72
2023/06/21 05:25:24;;;;;;;;;7.33;7.33;;;;;23.02;62.82;101171.25;5059452;28;45269;-72
2023/06/21 05:27:49;;;;;;;;;8.00;6.67;;;;;23.00;62.42;101157.09;5041524;28;45287;-71
2023/06/21 05:30:15;;;;;;;;;0.00;0.00;;;;;23.00;62.65;101153.53;5061659;28;46735;-72
2023/06/21 05:32:40;;;;;;;;;6.00;6.00;;;;;23.12;62.48;101162.69;5059027;28;45498;-72
2023/06/21 05:35:06;;;;;;;;;5.33;5.33;;;;;23.15;62.74;101173.09;5059321;28;48130;-72
2023/06/21 05:37:31;;;;;;;;;6.00;6.00;;;;;23.04;62.60;101147.50;5056842;28;45512;-71
2023/06/21 05:40:00;;;;;;;;;6.00;6.00;;;;;23.18;62.29;101172.66;5062219;28;46548;-70
2023/06/21 05:42:26;;;;;;;;;5.67;5.67;;;;;23.25;62.58;101165.34;5058764;28;45538;-72
2023/06/21 05:44:51;;;;;;;;;7.67;6.67;;;;;23.26;63.03;101164.28;5055977;28;45512;-72
2023/06/21 05:47:16;;;;;;;;;7.00;7.00;;;;;22.95;62.56;101108.09;5039128;28;45301;-72
2023/06/21 05:49:42;;;;;;;;;11.33;10.00;;;;;23.41;62.07;101163.13;5038486;28;45415;-71
2023/06/21 05:52:07;;;;;;;;;5.00;5.00;;;;;23.56;62.25;101145.53;5038387;28;45329;-72
2023/06/21 05:54:32;;;;;;;;;8.33;8.33;;;;;23.81;61.54;101134.69;5038831;28;45333;-71
2023/06/21 05:56:58;;;;;;;;;9.33;8.00;;;;;24.15;59.94;101151.53;5020137;28;45264;-72
2023/06/21 05:59:23;;;;;;;;;8.33;7.00;;;;;24.31;60.04;101161.03;5044221;28;46462;-71
2023/06/21 06:01:48;;;;;;;;;6.00;6.00;;;;;24.43;59.75;101151.09;5057949;28;67545;-72
2023/06/21 06:04:14;;;;;;;;;11.00;9.00;;;;;24.56;59.62;101146.31;5040699;28;45360;-70
2023/06/21 06:06:41;;;;;;;;;7.33;6.33;;;;;24.80;58.98;101154.59;5058698;28;45376;-73
2023/06/21 06:09:09;;;;;;;;;7.67;7.33;;;;;25.07;58.36;101164.16;5058445;28;45550;-72
2023/06/21 06:11:35;;;;;;;;;9.33;7.33;;;;;25.22;57.79;101157.44;5058315;28;45348;-73
2023/06/21 06:14:01;;;;;;;;;9.67;7.00;;;;;25.35;56.90;101149.09;5040284;28;45403;-72
2023/06/21 06:16:26;;;;;;;;;6.33;5.67;;;;;25.52;56.62;101149.28;5054673;28;45571;-73
2023/06/21 06:18:53;;;;;;;;;10.33;8.67;;;;;25.50;55.65;101116.00;5040599;28;45648;-73
2023/06/21 06:21:21;;;;;;;;;8.67;7.67;;;;;25.87;55.61;101152.09;5041824;28;45305;-75
2023/06/21 06:23:51;;;;;;;;;9.00;8.00;;;;;25.96;55.32;101147.94;5020060;28;45578;-72
2023/06/21 06:26:22;;;;;;;;;7.00;7.00;;;;;26.19;54.66;101158.03;5038622;28;45310;-71
2023/06/21 06:28:48;;;;;;;;;9.67;9.33;;;;;26.05;53.98;101113.84;5038012;28;46450;-70
2023/06/21 06:31:14;;;;;;;;;9.67;9.33;;;;;26.45;54.05;101167.66;5037974;28;45393;-71
2023/06/21 06:33:39;;;;;;;;;11.00;9.00;;;;;26.61;53.39;101166.91;5038130;28;45352;-71
2023/06/21 06:36:05;;;;;;;;;11.33;10.00;;;;;26.75;52.83;101168.31;5020378;28;45250;-72
2023/06/21 06:38:31;;;;;;;;;6.33;6.33;;;;;26.83;52.00;101165.22;5037600;28;45808;-72
2023/06/21 06:40:56;;;;;;;;;11.00;11.00;;;;;26.95;51.95;101168.75;5037855;28;45246;-72
2023/06/21 06:43:21;;;;;;;;;7.67;7.33;;;;;27.06;51.84;101174.44;5038031;28;45537;-72
2023/06/21 06:45:47;;;;;;;;;4.67;3.67;;;;;26.88;50.89;101124.41;5037934;28;45939;-71
2023/06/21 06:48:12;;;;;;;;;8.00;7.33;;;;;27.32;50.84;101189.41;5037172;28;61627;-71
2023/06/21 06:50:38;;;;;;;;;7.00;7.00;;;;;27.42;50.93;101186.84;5027164;28;45393;-72
2023/06/21 06:53:05;;;;;;;;;5.33;5.33;;;;;27.53;50.55;101191.44;5040717;28;45435;-72
2023/06/21 06:55:30;;;;;;;;;11.00;10.00;;;;;27.55;49.60;101181.94;5060498;27;45455;-72
2023/06/21 06:57:58;;;;;;;;;9.00;9.00;;;;;27.69;49.23;101195.31;5056965;28;45742;-73
2023/06/21 07:00:23;;;;;;;;;7.33;6.67;;;;;27.75;48.88;101194.31;5037681;28;45995;-76
2023/06/21 07:02:49;;;;;;;;;7.67;7.67;;;;;27.45;48.04;101134.50;5056231;28;45312;-74
2023/06/21 07:05:14;;;;;;;;;6.25;5.25;;;;;27.85;47.36;101194.50;5060158;28;46325;-71
2023/06/21 07:07:39;;;;;;;;;9.00;9.00;;;;;27.90;47.92;101200.06;5055269;28;46137;-73
2023/06/21 07:10:05;;;;;;;;;4.00;2.00;;;;;27.64;47.55;101148.78;5057071;28;45486;-73
2023/06/21 07:12:30;;;;;;;;;6.00;5.00;;;;;27.95;47.15;101200.13;5057336;28;45424;-71
2023/06/21 07:14:56;;;;;;;;;5.00;5.00;;;;;27.87;47.35;101186.88;5057655;28;45398;-70
2023/06/21 07:17:23;;;;;;;;;10.33;9.33;;;;;27.72;47.28;101178.44;5072833;28;46367;-71
2023/06/21 07:19:49;;;;;;;;;11.33;8.67;;;;;27.85;47.08;101211.72;5057397;28;45414;-72
2023/06/21 07:22:14;;;;;;;;;4.00;2.67;;;;;27.92;47.93;101199.81;5057140;28;45435;-73
2023/06/21 07:24:39;;;;;;;;;9.67;7.00;;;;;27.98;46.86;101199.63;5058025;28;45487;-72
2023/06/21 07:27:05;;;;;;;;;5.33;5.33;;;;;27.65;47.05;101151.28;5060172;27;46727;-71
2023/06/21 07:29:30;;;;;;;;;8.67;8.00;;;;;27.97;46.32;101199.88;5053610;28;45321;-72
2023/06/21 07:31:56;;;;;;;;;7.33;7.33;;;;;28.07;45.90;101194.59;5067164;28;45413;-74
2023/06/21 07:34:21;;;;;;;;;6.00;4.67;;;;;28.07;44.86;101200.06;5058767;28;55263;-73
2023/06/21 07:36:46;;;;;;;;;8.00;8.00;;;;;28.02;45.71;101206.25;5059082;28;47237;-72
2023/06/21 07:39:13;;;;;;;;;6.67;6.33;;;;;28.07;45.82;101220.03;5053995;28;45609;-77
2023/06/21 07:41:38;;;;;;;;;9.67;8.67;;;;;28.10;44.64;101214.06;5047147;28;45282;-70
2023/06/21 07:44:06;;;;;;;;;6.67;5.00;;;;;28.06;45.53;101207.44;5055163;28;45391;-71
2023/06/21 07:46:31;;;;;;;;;8.00;7.00;;;;;27.46;44.78;101108.84;5062440;28;46505;-69
2023/06/21 07:48:57;;;;;;;;;6.00;6.00;;;;;28.06;44.93;101201.13;5056317;28;45356;-71
2023/06/21 07:51:22;;;;;;;;;8.00;8.00;;;;;28.01;45.84;101192.84;5056229;28;45558;-72
2023/06/21 07:53:47;;;;;;;;;7.33;7.33;;;;;28.09;44.90;101208.84;5071522;28;45361;-70
2023/06/21 07:56:14;;;;;;;;;5.67;5.67;;;;;28.00;44.85;101202.09;5056437;28;47552;-71
2023/06/21 07:58:41;;;;;;;;;8.33;7.33;;;;;27.85;45.53;101180.84;5058381;28;45384;-72
2023/06/21 08:01:07;;;;;;;;;6.67;6.67;;;;;27.93;45.86;101201.47;5056508;28;45384;-71
2023/06/21 08:03:32;;;;;;;;;6.00;4.67;;;;;28.07;45.54;101203.63;5034512;28;45269;-72
2023/06/21 08:05:58;;;;;;;;;9.67;7.00;;;;;28.14;45.44;101206.19;5054700;28;45309;-73
2023/06/21 08:08:23;;;;;;;;;9.67;7.00;;;;;28.19;45.15;101201.59;5069976;28;45247;-71
2023/06/21 08:10:48;;;;;;;;;7.33;7.33;;;;;28.17;44.67;101195.56;5064058;28;45269;-76
2023/06/21 08:13:18;;;;;;;;;8.00;7.00;;;;;28.22;44.86;101216.69;5055466;28;45383;-72
2023/06/21 08:15:44;;;;;;;;;10.00;8.00;;;;;28.26;45.32;101215.16;5070723;28;48502;-71
2023/06/21 08:18:09;;;;;;;;;8.33;8.33;;;;;28.28;44.81;101207.53;5054466;28;45341;-72
2023/06/21 08:20:34;;;;;;;;;6.33;5.67;;;;;28.38;44.62;101212.31;5055731;28;45486;-72
2023/06/21 08:23:00;;;;;;;;;8.00;8.00;;;;;28.27;44.98;101180.44;5055426;28;55810;-71
2023/06/21 08:25:25;;;;;;;;;10.00;9.67;;;;;28.62;44.56;101230.16;5055690;28;45587;-72
2023/06/21 08:27:50;;;;;;;;;12.33;10.00;;;;;28.71;44.20;101223.19;5055549;28;45274;-71
2023/06/21 08:30:16;;;;;;;;;6.33;6.33;;;;;28.68;43.65;101212.75;5048798;28;45504;-72
2023/06/21 08:32:41;;;;;;;;;8.00;8.00;;;;;28.69;43.57;101211.69;5035367;28;46981;-70
2023/06/21 08:35:07;;;;;;;;;6.00;5.00;;;;;28.76;43.07;101223.25;5055789;28;46373;-71
2023/06/21 08:37:32;;;;;;;;;8.00;8.00;;;;;28.78;43.09;101220.28;5062290;28;45552;-71
2023/06/21 08:39:58;;;;;;;;;5.67;5.67;;;;;28.59;43.00;101208.78;5054419;28;45541;-71
2023/06/21 08:42:24;;;;;;;;;6.00;6.00;;;;;28.56;43.24;101224.88;5056256;28;45473;-71
2023/06/21 08:44:54;;;;;;;;;6.67;6.67;;;;;28.27;43.56;101194.13;5058127;28;45655;-72
2023/06/21 08:47:22;;;;;;;;;6.00;6.00;;;;;28.36;43.57;101239.09;5060672;28;45487;-70
2023/06/21 08:49:49;;;;;;;;;8.67;7.33;;;;;28.26;44.01;101222.53;5057769;28;45186;-72
2023/06/21 08:52:19;;;;;;;;;9.00;6.67;;;;;28.26;44.52;101223.38;5041413;28;45687;-71
2023/06/21 08:54:50;;;;;;;;;9.33;7.67;;;;;28.39;43.63;101227.63;5055206;28;46255;-70
2023/06/21 08:57:23;;;;;;;;;7.67;6.67;;;;;28.22;43.62;101194.81;5065343;28;45589;-71
2023/06/21 08:59:59;;;;;;;;;8.00;5.33;;;;;28.45;43.29;101224.75;5054150;28;45477;-71
2023/06/21 09:02:52;;;;;;;;;8.00;6.33;;;;;28.50;43.33;101229.47;5059594;28;45239;-71
2023/06/21 09:05:28;;;;;;;;;8.67;8.67;;;;;28.22;43.70;101186.59;5035323;28;47846;-70
2023/06/21 09:07:56;;;;;;;;;8.67;8.67;;;;;28.57;43.85;101238.31;5048258;28;45524;-70
2023/06/21 09:10:22;;;;;;;;;8.00;7.67;;;;;28.61;43.74;101234.00;5055128;28;45447;-71
2023/06/21 09:12:49;;;;;;;;;7.67;6.33;;;;;28.42;43.42;101188.84;5054423;28;45473;-70
2023/06/21 09:15:15;;;;;;;;;10.00;8.00;;;;;28.60;43.00;101213.19;5055570;28;45902;-71
2023/06/21 09:17:44;;;;;;;;;8.67;8.00;;;;;28.64;42.62;101225.31;5054647;28;45836;-70
2023/06/21 09:20:11;;;;;;;;;6.33;6.33;;;;;28.67;42.20;101230.25;5056350;28;45521;-70
2023/06/21 09:22:38;;;;;;;;;3.67;3.67;;;;;28.59;42.38;101222.47;5053796;28;45545;-71
2023/06/21 09:25:04;;;;;;;;;1.00;1.00;;;;;28.68;42.62;101231.09;5032703;28;46698;-72
2023/06/21 09:27:29;;;;;;;;;10.67;6.33;;;;;28.71;42.01;101215.00;5037552;28;45517;-71
2023/06/21 09:29:54;;;;;;;;;7.67;7.67;;;;;28.79;42.19;101224.66;5066453;28;45384;-71
2023/06/21 09:32:19;;;;;;;;;7.33;7.00;;;;;28.77;42.16;101226.81;5044728;28;45514;-71
2023/06/21 09:34:45;;;;;;;;;7.33;6.33;;;;;28.58;42.29;101188.00;5057991;28;62425;-71
2023/06/21 09:37:29;;;;;;;;;6.33;6.33;;;;;28.86;42.39;101217.16;5040736;28;45498;-71
2023/06/21 09:39:54;;;;;;;;;7.00;7.00;;;;;28.92;41.38;101237.19;5039098;28;45472;-72
2023/06/21 09:42:22;;;;;;;;;9.67;7.00;;;;;28.90;41.69;101215.53;5038896;28;45578;-71
2023/06/21 09:44:48;;;;;;;;;7.67;7.67;;;;;28.93;40.79;101222.41;5020500;28;47662;-73
2023/06/21 09:47:13;;;;;;;;;10.00;8.67;;;;;28.97;41.02;101229.88;5034687;28;45587;-71
2023/06/21 09:49:47;;;;;;;;;8.00;7.00;;;;;28.93;40.96;101217.78;5039869;28;45677;-71
2023/06/21 09:52:17;;;;;;;;;8.00;8.00;;;;;29.13;41.52;101235.53;5045348;28;45600;-71
2023/06/21 09:54:44;;;;;;;;;7.67;7.67;;;;;29.19;41.42;101240.81;5059983;28;46055;-71
2023/06/21 09:57:09;;;;;;;;;8.00;8.00;;;;;29.24;41.03;101240.91;5033253;28;45503;-70
2023/06/21 09:59:39;;;;;;;;;11.67;10.33;;;;;29.07;41.17;101204.53;5067479;28;45562;-71
2023/06/21 10:02:07;;;;;;;;;12.00;9.67;;;;;29.30;40.69;101236.28;5057603;28;45328;-72
2023/06/21 10:04:44;;;;;;;;;8.00;6.67;;;;;29.25;40.62;101226.13;5040160;28;45513;-71
2023/06/21 10:07:14;;;;;;;;;14.67;13.67;;;;;29.25;40.15;101236.25;5057733;28;45515;-71
2023/06/21 10:09:41;;;;;;;;;9.00;8.00;;;;;29.24;40.76;101229.09;5058882;28;45484;-76
2023/06/21 10:12:09;;;;;;;;;7.33;7.33;;;;;29.20;40.53;101233.41;5065645;27;45491;-73
2023/06/21 10:14:35;;;;;;;;;5.00;5.00;;;;;29.19;40.37;101227.13;5076172;28;45442;-72
2023/06/21 10:17:01;;;;;;;;;10.33;6.33;;;;;29.19;40.33;101226.28;5065032;28;45546;-72
2023/06/21 10:19:30;;;;;;;;;7.00;6.33;;;;;29.12;40.95;101222.94;5059787;28;45581;-72
2023/06/21 10:22:04;;;;;;;;;18.67;18.67;;;;;29.13;41.06;101227.31;5038145;28;45470;-74
2023/06/21 10:24:35;;;;;;;;;11.00;8.67;;;;;29.17;40.83;101223.81;5055762;28;47302;-74
2023/06/21 10:27:05;;;;;;;;;8.33;8.00;;;;;29.22;40.26;101226.59;5055551;28;45423;-73
2023/06/21 10:29:31;;;;;;;;;17.33;14.67;;;;;29.07;40.77;101199.06;5046882;28;45582;-71
2023/06/21 10:32:03;;;;;;;;;8.33;7.33;;;;;29.24;40.67;101220.91;5078640;28;45406;-73
2023/06/21 10:34:52;;;;;;;;;9.33;8.00;;;;;29.25;40.44;101217.91;5060961;28;46933;-72
2023/06/21 10:37:37;;;;;;;;;7.67;6.67;;;;;29.27;40.96;101223.94;5052606;28;45466;-73
2023/06/21 10:40:06;;;;;;;;;7.33;6.00;;;;;28.85;40.16;101154.41;5035942;28;45439;-72
2023/06/21 10:42:32;;;;;;;;;7.00;7.00;;;;;29.36;40.75;101227.88;5060249;28;45708;-73
2023/06/21 10:44:59;;;;;;;;;5.00;3.00;;;;;29.38;39.82;101230.34;5055155;28;45836;-72
2023/06/21 10:47:25;;;;;;;;;9.00;7.00;;;;;29.36;40.17;101230.59;5064948;28;45544;-72
2023/06/21 10:49:56;;;;;;;;;6.33;6.33;;;;;29.32;40.66;101215.78;5056256;28;45415;-75
2023/06/21 10:52:23;;;;;;;;;9.00;8.33;;;;;29.32;40.72;101210.28;5063992;28;45508;-73
2023/06/21 10:54:50;;;;;;;;;11.00;7.00;;;;;29.21;39.97;101191.25;5043064;28;48583;-71
2023/06/21 10:57:16;;;;;;;;;9.67;7.00;;;;;29.36;39.66;101227.88;5037845;28;45518;-72
2023/06/21 10:59:43;;;;;;;;;7.00;7.00;;;;;29.28;39.76;101225.59;5017674;28;45349;-73
2023/06/21 11:02:08;;;;;;;;;5.67;5.67;;;;;29.17;39.77;101215.59;5044676;28;45585;-73
2023/06/21 11:05:11;;;;;;;;;8.00;8.00;;;;;29.26;40.43;101230.50;5037865;28;47595;-71
2023/06/21 11:07:37;;;;;;;;;8.00;8.00;;;;;29.11;40.05;101199.38;5037343;28;45671;-71
2023/06/21 11:10:04;;;;;;;;;7.00;7.00;;;;;29.21;40.24;101222.22;5039312;28;45494;-72
2023/06/21 11:12:29;;;;;;;;;10.33;9.00;;;;;29.15;40.25;101225.16;5037708;28;45402;-73
2023/06/21 11:14:55;;;;;;;;;8.00;7.67;;;;;29.10;39.46;101234.13;5036488;28;46644;-73
2023/06/21 11:17:24;;;;;;;;;9.33;8.00;;;;;28.99;39.48;101218.66;5036751;28;45407;-73
2023/06/21 11:19:49;;;;;;;;;7.67;7.67;;;;;28.88;39.26;101227.84;5035681;28;45523;-79
2023/06/21 11:22:24;;;;;;;;;10.33;7.00;;;;;28.64;39.89;101192.47;5041838;28;45469;-73
2023/06/21 11:25:00;;;;;;;;;6.00;6.00;;;;;28.57;39.72;101183.59;5036957;28;47889;-72